Time;durP1;ratioP1;P1;durP2;ratioP2;P2;SDS_P1;SDS_P2;PMS_P1;PMS_P2;Temp;Humidity;BMP_temperature;BMP_pressure;BME280_temperature;BME280_humidity;BME280_pressure;Samples;Min_cycle;Max_cycle;Signal;HPM_P1;HPM_P2
2023/06/05 00:01:36;;;;;;;3.97;1.85;;;;;;;14.11;100.00;101845.84;6131627;23;20474;-82
2023/06/05 00:04:03;;;;;;;3.30;1.40;;;;;;;14.13;100.00;101850.25;6131327;23;20013;-81
2023/06/05 00:06:29;;;;;;;5.00;1.58;;;;;;;14.11;100.00;101852.22;6131827;23;20021;-82
2023/06/05 00:08:54;;;;;;;2.97;2.10;;;;;;;13.95;100.00;101849.81;6158457;23;20005;-82
2023/06/05 00:11:20;;;;;;;5.80;1.98;;;;;;;13.81;100.00;101811.47;6131800;23;20072;-83
2023/06/05 00:13:46;;;;;;;5.68;1.60;;;;;;;13.62;100.00;101813.88;6156409;23;20315;-83
2023/06/05 00:16:11;;;;;;;3.25;1.58;;;;;;;13.73;100.00;101831.31;6109268;23;20047;-83
2023/06/05 00:18:37;;;;;;;6.88;1.85;;;;;;;13.89;100.00;101860.44;6107040;23;20013;-83
2023/06/05 00:21:03;;;;;;;5.43;1.70;;;;;;;13.87;100.00;101854.13;6107608;23;20080;-83
2023/06/05 00:23:29;;;;;;;4.05;1.85;;;;;;;13.72;100.00;101829.53;6108351;23;20017;-82
2023/06/05 00:25:55;;;;;;;7.10;1.80;;;;;;;13.88;100.00;101843.00;6131277;23;20009;-83
2023/06/05 00:28:20;;;;;;;4.07;1.73;;;;;;;13.73;100.00;101835.94;6132406;23;20011;-83
2023/06/05 00:30:46;;;;;;;2.78;1.75;;;;;;;13.74;100.00;101848.69;6083954;23;20064;-83
2023/06/05 00:33:11;;;;;;;3.15;1.90;;;;;;;13.58;100.00;101835.25;6132488;23;20010;-82
2023/06/05 00:35:38;;;;;;;4.18;1.95;;;;;;;13.62;100.00;101847.75;6108626;23;20014;-82
2023/06/05 00:38:03;;;;;;;3.97;1.80;;;;;;;13.56;100.00;101851.88;6159698;23;20016;-83
2023/06/05 00:40:29;;;;;;;3.95;2.10;;;;;;;13.55;100.00;101847.34;6133978;23;20041;-82
2023/06/05 00:42:54;;;;;;;5.20;1.77;;;;;;;13.51;100.00;101850.44;6111389;23;20384;-83
2023/06/05 00:45:20;;;;;;;3.45;2.13;;;;;;;13.50;100.00;101844.06;6162385;23;20037;-83
2023/06/05 00:47:46;;;;;;;3.58;1.77;;;;;;;13.29;100.00;101832.78;6122206;23;20040;-83
2023/06/05 00:50:15;;;;;;;3.72;1.63;;;;;;;13.19;100.00;101812.47;6141296;23;20013;-82
2023/06/05 00:52:45;;;;;;;4.05;1.65;;;;;;;13.37;100.00;101844.13;6144062;23;20009;-83
2023/06/05 00:55:11;;;;;;;7.15;2.00;;;;;;;13.16;100.00;101830.06;6120008;23;20009;-83
2023/06/05 00:57:38;;;;;;;6.32;2.13;;;;;;;12.96;100.00;101803.19;6114916;23;20016;-82
2023/06/05 01:00:07;;;;;;;6.45;2.13;;;;;;;13.17;100.00;101830.97;6164654;23;20016;-83
2023/06/05 01:02:34;;;;;;;3.47;2.40;;;;;;;13.12;100.00;101839.53;6111224;23;20429;-83
2023/06/05 01:05:00;;;;;;;9.75;2.00;;;;;;;12.94;100.00;101821.66;6132397;23;20018;-83
2023/06/05 01:07:27;;;;;;;3.75;2.10;;;;;;;13.04;100.00;101839.25;6156709;23;20350;-82
2023/06/05 01:09:54;;;;;;;6.47;2.08;;;;;;;13.00;100.00;101845.94;6155616;23;20024;-83
2023/06/05 01:12:35;;;;;;;4.32;2.10;;;;;;;12.99;100.00;101849.69;6106505;23;20097;-83
2023/06/05 01:15:02;;;;;;;5.20;2.10;;;;;;;12.86;100.00;101845.09;6106951;23;20017;-82
2023/06/05 01:17:28;;;;;;;2.55;2.25;;;;;;;12.88;100.00;101831.22;6107482;23;20041;-83
2023/06/05 01:19:55;;;;;;;4.10;2.13;;;;;;;12.82;100.00;101837.16;6106684;23;20005;-82
2023/06/05 01:22:20;;;;;;;5.07;2.35;;;;;;;12.80;100.00;101840.03;6156470;23;20012;-84
2023/06/05 01:24:47;;;;;;;6.80;2.28;;;;;;;12.72;100.00;101839.69;6131908;23;20017;-83
2023/06/05 01:27:27;;;;;;;4.05;2.33;;;;;;;12.71;100.00;101826.97;6083406;23;20322;-84
2023/06/05 01:30:08;;;;;;;5.68;2.30;;;;;;;12.69;100.00;101834.44;6131016;23;20402;-84
2023/06/05 01:32:46;;;;;;;3.45;2.50;;;;;;;12.71;100.00;101832.47;6130448;23;20460;-83
2023/06/05 01:35:16;;;;;;;6.50;2.63;;;;;;;12.61;100.00;101826.75;6131590;23;20452;-83
2023/06/05 01:37:48;;;;;;;5.45;2.70;;;;;;;12.52;100.00;101815.56;6131399;23;20016;-83
2023/06/05 01:40:15;;;;;;;4.00;2.35;;;;;;;12.61;100.00;101826.75;6132831;23;20013;-84
2023/06/05 01:42:42;;;;;;;5.30;2.58;;;;;;;12.57;100.00;101816.97;6105767;23;20087;-84
2023/06/05 01:45:10;;;;;;;4.63;2.53;;;;;;;12.57;100.00;101833.44;6156654;23;20570;-84
2023/06/05 01:47:37;;;;;;;4.82;2.25;;;;;;;12.59;100.00;101825.09;6106555;23;20013;-83
2023/06/05 01:50:03;;;;;;;7.95;3.17;;;;;;;12.53;100.00;101823.69;6131099;23;20164;-85
2023/06/05 01:52:29;;;;;;;7.90;2.83;;;;;;;12.55;100.00;101824.44;6131562;23;20017;-85
2023/06/05 01:54:54;;;;;;;6.30;2.63;;;;;;;12.40;100.00;101822.81;6107965;23;20076;-86
2023/06/05 01:57:21;;;;;;;9.43;2.78;;;;;;;12.31;100.00;101806.00;6083855;23;20018;-86
2023/06/05 01:59:46;;;;;;;5.47;3.30;;;;;;;12.43;100.00;101831.72;6131853;23;20013;-85
2023/06/05 02:02:14;;;;;;;6.35;3.30;;;;;;;12.40;100.00;101820.94;6107009;23;20002;-86
2023/06/05 02:04:40;;;;;;;8.48;2.85;;;;;;;12.42;100.00;101821.69;6156353;23;20698;-85
2023/06/05 02:07:07;;;;;;;6.03;3.20;;;;;;;12.27;100.00;101818.19;6107135;23;19997;-85
2023/06/05 02:09:33;;;;;;;7.00;2.97;;;;;;;12.22;100.00;101814.88;6131828;23;20013;-85
2023/06/05 02:12:03;;;;;;;17.25;3.45;;;;;;;12.20;100.00;101815.97;6082313;23;20037;-84
2023/06/05 02:14:31;;;;;;;6.30;3.13;;;;;;;12.21;100.00;101813.13;6107721;23;20017;-84
2023/06/05 02:16:58;;;;;;;8.00;3.17;;;;;;;12.17;100.00;101816.19;6157024;23;20016;-83
2023/06/05 02:19:24;;;;;;;5.93;2.83;;;;;;;12.05;100.00;101805.09;6082857;23;20310;-84
2023/06/05 02:21:51;;;;;;;6.20;2.97;;;;;;;11.93;100.00;101792.22;6131280;23;20136;-82
2023/06/05 02:24:18;;;;;;;9.00;3.00;;;;;;;12.10;100.00;101808.41;6106907;23;20036;-84
2023/06/05 02:26:44;;;;;;;4.97;3.22;;;;;;;12.04;100.00;101810.69;6131521;23;20014;-84
2023/06/05 02:29:10;;;;;;;11.02;3.30;;;;;;;11.99;100.00;101805.53;6157453;23;20041;-85
2023/06/05 02:31:36;;;;;;;3.80;3.00;;;;;;;11.84;100.00;101773.63;6083617;23;20021;-85
2023/06/05 02:34:02;;;;;;;4.10;2.80;;;;;;;11.91;100.00;101792.34;6159424;23;20009;-88
2023/06/05 02:36:32;;;;;;;8.18;3.38;;;;;;;11.97;100.00;101784.66;6136584;23;20012;-85
2023/06/05 02:38:59;;;;;;;4.72;3.50;;;;;;;11.82;100.00;101776.47;6136001;23;20017;-84
2023/06/05 02:41:26;;;;;;;6.10;3.20;;;;;;;11.97;100.00;101792.88;6135139;23;20005;-84
2023/06/05 02:43:55;;;;;;;8.00;3.50;;;;;;;11.87;100.00;101790.78;6109264;23;20389;-85
2023/06/05 02:46:24;;;;;;;5.03;3.38;;;;;;;11.82;100.00;101775.59;6107145;23;20349;-83
2023/06/05 02:48:51;;;;;;;5.25;3.15;;;;;;;11.78;100.00;101796.88;6083915;23;20009;-83
2023/06/05 02:51:16;;;;;;;8.43;3.45;;;;;;;11.84;100.00;101787.34;6157695;23;20349;-84
2023/06/05 02:53:42;;;;;;;6.90;3.20;;;;;;;11.76;100.00;101775.03;6109482;23;20013;-83
2023/06/05 02:56:07;;;;;;;6.75;3.65;;;;;;;11.74;100.00;101795.31;6144429;23;20024;-83
2023/06/05 02:58:37;;;;;;;5.15;3.33;;;;;;;11.75;100.00;101791.59;6114270;23;20097;-83
2023/06/05 03:01:03;;;;;;;5.10;3.63;;;;;;;11.67;100.00;101772.06;6132399;23;20021;-84
2023/06/05 03:03:32;;;;;;;5.20;3.88;;;;;;;11.71;100.00;101793.69;6108814;23;20020;-83
2023/06/05 03:06:04;;;;;;;5.97;3.90;;;;;;;11.57;100.00;101775.41;6107311;23;20013;-83
2023/06/05 03:08:34;;;;;;;6.00;3.97;;;;;;;11.67;100.00;101783.03;6107644;23;20110;-83
2023/06/05 03:11:04;;;;;;;15.60;5.15;;;;;;;11.62;100.00;101782.47;6130577;23;20018;-83
2023/06/05 03:13:32;;;;;;;9.65;4.85;;;;;;;11.48;100.00;101775.16;6130835;23;20025;-82
2023/06/05 03:16:00;;;;;;;5.38;4.30;;;;;;;11.54;100.00;101793.97;6107286;23;20036;-82
2023/06/05 03:18:27;;;;;;;7.38;4.13;;;;;;;11.60;100.00;101796.28;6155538;23;20037;-85
2023/06/05 03:20:56;;;;;;;5.82;3.83;;;;;;;11.49;100.00;101780.56;6155689;23;20029;-85
2023/06/05 03:23:27;;;;;;;6.22;4.15;;;;;;;11.59;100.00;101786.28;6083673;23;20381;-85
2023/06/05 03:25:54;;;;;;;8.05;3.67;;;;;;;11.56;100.00;101786.53;6131845;23;20013;-84
2023/06/05 03:28:21;;;;;;;4.35;3.78;;;;;;;11.42;100.00;101762.78;6130776;23;20033;-84
2023/06/05 03:30:47;;;;;;;5.55;4.05;;;;;;;11.38;100.00;101783.16;6130921;23;20031;-85
2023/06/05 03:33:19;;;;;;;7.13;4.38;;;;;;;11.40;100.00;101776.56;6107007;23;20017;-86
2023/06/05 03:35:49;;;;;;;8.82;4.90;;;;;;;11.17;100.00;101755.34;6133210;23;20009;-86
2023/06/05 03:38:14;;;;;;;6.00;4.00;;;;;;;11.28;100.00;101755.50;6060066;23;20014;-84
2023/06/05 03:40:40;;;;;;;6.78;4.30;;;;;;;11.39;100.00;101784.91;6131024;23;20081;-83
2023/06/05 03:43:06;;;;;;;9.43;4.95;;;;;;;11.34;100.00;101779.72;6158018;23;20005;-84
2023/06/05 03:45:33;;;;;;;10.48;4.80;;;;;;;11.26;100.00;101773.00;6132139;23;20018;-86
2023/06/05 03:48:02;;;;;;;9.70;4.90;;;;;;;11.34;100.00;101778.88;6130789;23;20013;-85
2023/06/05 03:50:32;;;;;;;8.32;5.15;;;;;;;11.19;100.00;101753.38;6084472;23;20013;-85
2023/06/05 03:53:02;;;;;;;5.28;4.38;;;;;;;11.20;100.00;101757.88;6135857;23;20431;-84
2023/06/05 03:55:45;;;;;;;8.43;4.35;;;;;;;11.37;100.00;101776.78;6116923;23;20009;-85
2023/06/05 03:58:14;;;;;;;8.20;5.35;;;;;;;11.18;100.00;101749.75;6140049;23;20009;-85
2023/06/05 04:00:45;;;;;;;7.85;4.65;;;;;;;11.32;100.00;101786.31;6159864;23;20024;-86
2023/06/05 04:03:12;;;;;;;7.65;4.53;;;;;;;11.30;100.00;101774.59;6113464;23;20001;-82
2023/06/05 04:05:39;;;;;;;10.27;5.05;;;;;;;11.32;100.00;101780.84;6110468;23;20037;-87
2023/06/05 04:08:09;;;;;;;8.07;4.47;;;;;;;11.33;100.00;101778.00;6135022;23;20437;-88
2023/06/05 04:10:35;;;;;;;7.18;4.40;;;;;;;11.35;100.00;101786.13;6134598;23;20006;-88
2023/06/05 04:13:02;;;;;;;7.63;5.15;;;;;;;11.43;100.00;101783.72;6111315;23;20396;-88
2023/06/05 04:15:28;;;;;;;9.50;5.45;;;;;;;11.34;100.00;101787.97;6113857;23;20014;-87
2023/06/05 04:17:53;;;;;;;8.80;5.30;;;;;;;11.39;100.00;101790.38;6108975;23;20013;-82
2023/06/05 04:20:20;;;;;;;7.18;4.97;;;;;;;11.32;100.00;101768.00;6107977;23;20025;-83
2023/06/05 04:22:45;;;;;;;8.20;5.05;;;;;;;11.36;100.00;101757.69;6131968;23;20017;-81
2023/06/05 04:25:15;;;;;;;6.95;4.50;;;;;;;11.53;100.00;101792.22;6131858;23;20016;-84
2023/06/05 04:27:43;;;;;;;8.88;5.97;;;;;;;11.53;100.00;101792.22;6131639;23;20010;-85
2023/06/05 04:30:11;;;;;;;7.18;4.57;;;;;;;11.50;100.00;101782.31;6156538;23;20009;-85
2023/06/05 04:32:38;;;;;;;7.50;5.10;;;;;;;11.49;100.00;101782.41;6155697;23;20009;-84
2023/06/05 04:35:09;;;;;;;7.97;5.35;;;;;;;11.59;100.00;101789.94;6132095;23;20287;-86
2023/06/05 04:37:39;;;;;;;8.80;5.30;;;;;;;11.57;100.00;101797.38;6131051;23;20787;-83
2023/06/05 04:40:06;;;;;;;12.35;5.60;;;;;;;11.56;100.00;101784.66;6160215;23;20096;-82
2023/06/05 04:42:36;;;;;;;10.70;5.65;;;;;;;11.50;100.00;101773.22;6148239;23;20013;-82
2023/06/05 04:45:04;;;;;;;10.35;5.10;;;;;;;11.60;100.00;101766.13;6148561;23;20440;-83
2023/06/05 04:47:30;;;;;;;8.52;5.63;;;;;;;11.81;100.00;101802.16;6171340;23;20102;-84
2023/06/05 04:50:03;;;;;;;6.40;4.82;;;;;;;11.82;100.00;101798.41;6137174;23;20013;-84
2023/06/05 04:52:29;;;;;;;6.55;5.15;;;;;;;11.80;100.00;101780.31;6132928;23;20017;-81
2023/06/05 04:54:55;;;;;;;6.18;5.00;;;;;;;11.89;100.00;101809.88;6110309;23;20009;-83
2023/06/05 04:57:20;;;;;;;7.55;5.18;;;;;;;11.89;100.00;101794.28;6131460;23;20080;-84
2023/06/05 04:59:46;;;;;;;7.03;5.57;;;;;;;11.92;100.00;101794.09;6084454;23;20020;-83
2023/06/05 05:02:12;;;;;;;14.93;6.30;;;;;;;11.95;100.00;101793.88;6132724;23;20497;-84
2023/06/05 05:04:38;;;;;;;10.23;5.47;;;;;;;11.80;100.00;101799.53;6106111;23;20085;-84
2023/06/05 05:07:03;;;;;;;8.63;5.50;;;;;;;11.88;100.00;101806.22;6109641;23;20013;-84
2023/06/05 05:09:32;;;;;;;17.15;6.20;;;;;;;11.97;100.00;101796.53;6158579;23;20041;-84
2023/06/05 05:11:58;;;;;;;9.57;5.78;;;;;;;12.10;100.00;101804.75;6109707;23;20017;-84
2023/06/05 05:14:27;;;;;;;15.23;6.43;;;;;;;12.03;100.00;101789.72;6134000;23;20068;-84
2023/06/05 05:16:55;;;;;;;12.15;5.97;;;;;;;12.01;100.00;101776.09;6161861;23;20067;-85
2023/06/05 05:19:22;;;;;;;11.30;5.32;;;;;;;12.34;100.00;101795.78;6115004;23;20010;-85
2023/06/05 05:21:47;;;;;;;10.70;5.95;;;;;;;12.40;100.00;101795.34;6163927;23;20041;-84
2023/06/05 05:24:13;;;;;;;13.68;5.45;;;;;;;12.59;100.00;101803.13;6111225;23;20087;-83
2023/06/05 05:26:41;;;;;;;12.93;5.68;;;;;;;12.56;100.00;101778.63;6158395;23;20017;-84
2023/06/05 05:29:10;;;;;;;24.88;6.75;;;;;;;12.86;100.00;101800.25;6111626;23;20037;-84
2023/06/05 05:31:36;;;;;;;12.15;5.65;;;;;;;13.17;100.00;101800.72;6110450;23;20088;-85
2023/06/05 05:34:01;;;;;;;17.25;6.30;;;;;;;13.26;100.00;101801.88;6108796;23;20013;-85
2023/06/05 05:36:27;;;;;;;15.63;6.22;;;;;;;13.54;100.00;101809.84;6157495;23;20092;-84
2023/06/05 05:38:55;;;;;;;16.23;5.97;;;;;;;13.74;100.00;101807.41;6111252;23;20010;-85
2023/06/05 05:41:21;;;;;;;9.45;6.00;;;;;;;13.83;100.00;101806.69;6164363;23;20036;-84
2023/06/05 05:43:47;;;;;;;7.65;5.78;;;;;;;13.94;100.00;101808.63;6120726;23;20010;-84
2023/06/05 05:46:13;;;;;;;9.50;6.50;;;;;;;14.07;100.00;101809.41;6091542;23;20016;-84
2023/06/05 05:48:39;;;;;;;8.45;5.35;;;;;;;14.32;100.00;101801.97;6133876;23;20449;-85
2023/06/05 05:51:06;;;;;;;13.30;5.38;;;;;;;14.48;100.00;101807.13;6156470;23;20020;-85
2023/06/05 05:53:31;;;;;;;11.95;5.70;;;;;;;14.26;100.00;101802.44;6108125;23;20318;-87
2023/06/05 05:55:57;;;;;;;7.38;5.35;;;;;;;14.49;100.00;101797.84;6106569;23;20017;-86
2023/06/05 05:58:23;;;;;;;7.82;5.45;;;;;;;15.03;100.00;101801.75;6132002;23;20021;-86
2023/06/05 06:00:48;;;;;;;5.93;5.25;;;;;;;15.10;100.00;101810.38;6108574;23;20040;-87
2023/06/05 06:03:15;;;;;;;6.45;5.25;;;;;;;15.68;100.00;101797.19;6106214;23;20013;-87
2023/06/05 06:05:41;;;;;;;11.55;5.68;;;;;;;15.39;100.00;101810.72;6154349;23;20006;-86
2023/06/05 06:08:07;;;;;;;15.13;5.78;;;;;;;15.74;100.00;101812.34;6106527;23;20044;-87
2023/06/05 06:10:33;;;;;;;8.20;5.82;;;;;;;16.10;100.00;101812.97;6132788;23;20084;-87
2023/06/05 06:13:01;;;;;;;7.43;5.55;;;;;;;16.19;100.00;101820.47;6129348;23;20437;-87
2023/06/05 06:15:27;;;;;;;7.90;5.30;;;;;;;16.11;100.00;101809.19;6156271;23;20013;-83
2023/06/05 06:17:53;;;;;;;9.30;5.25;;;;;;;16.35;100.00;101814.47;6103966;23;20016;-83
2023/06/05 06:20:18;;;;;;;8.32;5.50;;;;;;;16.44;100.00;101818.28;6129119;23;20080;-83
2023/06/05 06:22:44;;;;;;;9.38;5.13;;;;;;;16.63;100.00;101817.53;6152611;23;20016;-84
2023/06/05 06:25:12;;;;;;;7.03;4.90;;;;;;;16.62;100.00;101799.19;6104167;23;20088;-84
2023/06/05 06:27:38;;;;;;;7.20;4.30;;;;;;;16.94;100.00;101812.91;6128002;23;20013;-84
2023/06/05 06:30:04;;;;;;;6.38;4.78;;;;;;;17.19;100.00;101821.72;6154407;23;20020;-85
2023/06/05 06:32:30;;;;;;;7.97;5.00;;;;;;;16.89;100.00;101805.03;6129011;23;20013;-84
2023/06/05 06:34:56;;;;;;;7.78;5.20;;;;;;;17.57;98.70;101826.47;6107169;23;20067;-83
2023/06/05 06:37:22;;;;;;;9.18;5.05;;;;;;;17.36;97.15;101826.56;6129253;23;20039;-84
2023/06/05 06:39:48;;;;;;;7.15;4.95;;;;;;;17.54;97.79;101823.09;6155175;23;20456;-84
2023/06/05 06:42:14;;;;;;;9.02;5.22;;;;;;;17.57;96.34;101809.84;6104513;23;20013;-83
2023/06/05 06:44:39;;;;;;;9.30;5.35;;;;;;;17.89;93.37;101818.94;6103895;23;20017;-84
2023/06/05 06:47:05;;;;;;;8.13;5.18;;;;;;;17.34;96.33;101824.97;6078862;23;20014;-83
2023/06/05 06:49:31;;;;;;;8.00;4.95;;;;;;;17.44;95.08;101834.16;6126639;23;20021;-83
2023/06/05 06:51:57;;;;;;;9.10;5.20;;;;;;;18.04;96.15;101839.66;6103619;23;20013;-83
2023/06/05 06:54:25;;;;;;;6.13;4.68;;;;;;;17.95;92.16;101830.31;6128010;23;20018;-85
2023/06/05 06:56:50;;;;;;;10.63;5.05;;;;;;;17.85;95.38;101832.19;6108677;23;20012;-85
2023/06/05 06:59:16;;;;;;;5.55;4.95;;;;;;;18.37;89.57;101824.44;6159510;23;20044;-83
2023/06/05 07:01:46;;;;;;;8.75;5.30;;;;;;;18.05;92.02;101846.06;6057016;23;20033;-83
2023/06/05 07:04:16;;;;;;;6.38;4.80;;;;;;;18.37;89.03;101832.75;6153895;23;20093;-83
2023/06/05 07:06:44;;;;;;;5.88;4.60;;;;;;;18.50;88.59;101838.00;6106804;23;20009;-82
2023/06/05 07:09:09;;;;;;;8.00;5.40;;;;;;;18.95;85.50;101843.88;6157514;23;20009;-83
2023/06/05 07:11:35;;;;;;;8.00;5.00;;;;;;;19.00;84.54;101838.72;6120968;23;20018;-82
2023/06/05 07:14:00;;;;;;;5.63;4.57;;;;;;;19.23;82.03;101845.66;6098790;23;20017;-81
2023/06/05 07:16:26;;;;;;;6.47;5.20;;;;;;;18.82;85.02;101844.19;6101821;23;20014;-84
2023/06/05 07:18:52;;;;;;;5.70;4.35;;;;;;;19.81;81.63;101843.56;6125712;23;20365;-83
2023/06/05 07:21:17;;;;;;;5.85;4.78;;;;;;;19.50;81.63;101831.91;6133647;23;20018;-82
2023/06/05 07:23:44;;;;;;;8.68;4.63;;;;;;;20.01;80.89;101850.69;6103758;23;20051;-83
2023/06/05 07:26:10;;;;;;;7.43;5.38;;;;;;;20.23;76.34;101848.44;6100995;23;20014;-83
2023/06/05 07:28:35;;;;;;;8.73;5.28;;;;;;;19.95;77.41;101842.97;6102546;23;20461;-81
2023/06/05 07:31:03;;;;;;;6.15;4.75;;;;;;;20.32;78.11;101838.28;6125639;23;20044;-82
2023/06/05 07:33:29;;;;;;;9.32;5.10;;;;;;;20.38;75.20;101848.75;6102571;23;20054;-82
2023/06/05 07:35:54;;;;;;;6.40;5.28;;;;;;;20.35;77.25;101849.09;6131364;23;20017;-85
2023/06/05 07:38:20;;;;;;;5.38;4.53;;;;;;;20.07;74.76;101843.66;6133351;23;20017;-81
2023/06/05 07:40:45;;;;;;;7.32;4.55;;;;;;;19.93;76.09;101833.94;6104503;23;20014;-81
2023/06/05 07:43:14;;;;;;;7.30;4.45;;;;;;;20.04;78.34;101841.19;6105359;23;20006;-84
2023/06/05 07:45:40;;;;;;;10.05;4.60;;;;;;;20.79;72.15;101842.63;6105632;23;20586;-84
2023/06/05 07:48:06;;;;;;;6.05;4.68;;;;;;;20.58;70.59;101841.09;6128477;23;20093;-83
2023/06/05 07:50:31;;;;;;;8.10;4.97;;;;;;;20.46;72.60;101821.00;6125041;23;20078;-83
2023/06/05 07:52:56;;;;;;;5.68;4.13;;;;;;;20.75;70.50;101842.97;6101629;23;20021;-84
2023/06/05 07:55:22;;;;;;;7.72;4.75;;;;;;;20.78;71.44;101854.81;6100048;23;20435;-84
2023/06/05 07:57:47;;;;;;;8.02;4.85;;;;;;;21.10;68.74;101831.84;6101195;23;20014;-83
2023/06/05 08:00:13;;;;;;;7.50;4.75;;;;;;;20.69;70.16;101840.84;6099172;23;20105;-85
2023/06/05 08:02:40;;;;;;;5.75;4.95;;;;;;;21.17;68.96;101838.50;6075810;23;20096;-83
2023/06/05 08:05:06;;;;;;;11.18;5.50;;;;;;;21.13;68.52;101839.00;6099868;23;20018;-83
2023/06/05 08:07:31;;;;;;;10.70;4.95;;;;;;;20.60;71.46;101830.66;6126112;23;20021;-82
2023/06/05 08:09:57;;;;;;;8.88;4.82;;;;;;;20.70;70.24;101836.16;6077423;23;20013;-81
2023/06/05 08:12:22;;;;;;;8.90;4.68;;;;;;;21.27;70.80;101832.81;6129764;23;20028;-83
2023/06/05 08:14:48;;;;;;;5.82;4.75;;;;;;;22.13;65.13;101836.31;6105287;23;20108;-82
2023/06/05 08:17:13;;;;;;;11.02;5.30;;;;;;;21.71;67.15;101835.41;6104286;23;20064;-82
2023/06/05 08:19:39;;;;;;;13.40;6.95;;;;;;;21.34;68.59;101825.50;6106436;23;20019;-83
2023/06/05 08:22:04;;;;;;;7.95;6.22;;;;;;;21.52;66.56;101831.00;6106945;23;20044;-83
2023/06/05 08:24:31;;;;;;;9.32;5.80;;;;;;;21.91;66.66;101835.97;6129383;23;20429;-82
2023/06/05 08:26:59;;;;;;;9.50;6.18;;;;;;;22.16;66.08;101824.81;6130312;23;20009;-82
2023/06/05 08:29:24;;;;;;;8.60;5.60;;;;;;;21.87;66.57;101831.75;6130722;23;20437;-82
2023/06/05 08:31:50;;;;;;;9.50;5.60;;;;;;;21.73;67.49;101816.59;6129664;23;20072;-82
2023/06/05 08:34:15;;;;;;;9.85;6.30;;;;;;;21.53;68.24;101823.50;6105962;23;20021;-82
2023/06/05 08:36:42;;;;;;;9.50;5.78;;;;;;;21.59;68.45;101829.25;6129293;23;20069;-82
2023/06/05 08:39:08;;;;;;;9.95;6.00;;;;;;;21.69;66.84;101815.16;6080950;23;20020;-83
2023/06/05 08:41:35;;;;;;;8.35;6.30;;;;;;;21.71;66.76;101813.09;6130155;23;20013;-83
2023/06/05 08:44:04;;;;;;;11.48;6.20;;;;;;;22.49;64.06;101822.03;6129085;23;20108;-82
2023/06/05 08:46:32;;;;;;;8.60;5.68;;;;;;;22.23;65.41;101816.63;6104615;23;20013;-82
2023/06/05 08:48:57;;;;;;;11.80;5.47;;;;;;;22.06;64.56;101812.97;6082358;23;20044;-82
2023/06/05 08:51:23;;;;;;;8.20;5.60;;;;;;;22.25;65.15;101818.19;6105280;23;20017;-82
2023/06/05 08:54:01;;;;;;;8.07;5.95;;;;;;;22.36;64.72;101829.00;6108138;23;20021;-82
2023/06/05 08:56:27;;;;;;;13.60;6.50;;;;;;;22.26;66.35;101817.13;6128972;23;20005;-83
2023/06/05 08:58:55;;;;;;;8.57;5.70;;;;;;;22.59;65.56;101817.13;6131019;23;20487;-81
2023/06/05 09:01:20;;;;;;;11.68;6.38;;;;;;;22.50;63.66;101818.22;6157851;23;20009;-81
2023/06/05 09:03:46;;;;;;;9.68;6.07;;;;;;;22.23;65.44;101814.69;6108788;23;20445;-82
2023/06/05 09:06:11;;;;;;;11.20;6.50;;;;;;;22.93;62.91;101813.22;6113424;23;20020;-82
2023/06/05 09:08:37;;;;;;;9.20;6.18;;;;;;;23.10;61.18;101806.56;6110957;23;20041;-81
2023/06/05 09:11:22;;;;;;;8.18;5.95;;;;;;;22.44;63.80;101813.31;6163434;23;20041;-82
2023/06/05 09:13:48;;;;;;;13.50;5.85;;;;;;;23.37;61.69;101815.50;6106882;23;20013;-81
2023/06/05 09:16:14;;;;;;;11.02;6.20;;;;;;;22.74;63.34;101812.56;6133691;23;20024;-82
2023/06/05 09:18:56;;;;;;;10.57;5.95;;;;;;;22.83;62.79;101819.00;6136809;23;20009;-81
2023/06/05 09:21:28;;;;;;;14.50;6.88;;;;;;;22.57;63.24;101806.13;6109288;23;20018;-82
2023/06/05 09:24:09;;;;;;;;;;;;;;;22.91;62.83;101818.13;6106029;23;20014;-81
2023/06/05 09:26:57;;;;;;;9.40;6.72;;;;;;;22.84;63.13;101808.69;6134743;23;19943;-81
2023/06/05 09:29:31;;;;;;;10.10;7.03;;;;;;;23.23;60.95;101796.69;6123850;23;20073;-82
2023/06/05 09:31:58;;;;;;;11.77;6.18;;;;;;;23.52;60.79;101804.41;6147655;23;20014;-80
2023/06/05 09:34:29;;;;;;;10.90;6.28;;;;;;;23.49;60.05;101788.84;6099942;23;20072;-83
2023/06/05 09:36:57;;;;;;;9.25;6.72;;;;;;;23.47;58.79;101799.34;6176498;23;20017;-84
2023/06/05 09:39:25;;;;;;;12.70;6.85;;;;;;;23.31;58.81;101783.53;6171390;23;20020;-83
2023/06/05 09:41:51;;;;;;;10.48;6.03;;;;;;;23.18;59.15;101793.59;6107049;23;20009;-83
2023/06/05 09:44:21;;;;;;;9.40;6.35;;;;;;;23.20;60.25;101795.16;6134364;23;20072;-83
2023/06/05 09:46:55;;;;;;;9.07;5.60;;;;;;;23.62;58.65;101805.03;6152819;23;20017;-83
2023/06/05 09:49:25;;;;;;;10.27;6.53;;;;;;;23.31;58.58;101785.47;6177767;23;20064;-82
2023/06/05 09:51:51;;;;;;;7.28;5.78;;;;;;;23.31;58.14;101799.44;6180713;23;20028;-81
2023/06/05 09:54:19;;;;;;;6.45;5.05;;;;;;;23.52;57.83;101803.53;6129577;23;19997;-85
2023/06/05 09:59:21;;;;;;;13.02;6.68;;;;;;;24.01;55.67;101804.09;6184701;23;20036;-81
2023/06/05 10:01:50;;;;;;;8.43;6.28;;;;;;;23.18;57.23;101786.06;6134370;23;20009;-79
2023/06/05 10:04:18;;;;;;;8.57;6.30;;;;;;;23.47;57.10;101793.78;6165193;23;20063;-79
2023/06/05 10:06:46;;;;;;;11.90;6.30;;;;;;;24.02;55.35;101788.16;6138420;23;20009;-79
2023/06/05 10:09:13;;;;;;;13.93;6.07;;;;;;;24.13;55.46;101792.47;6142699;23;20065;-81
2023/06/05 10:11:41;;;;;;;8.82;5.90;;;;;;;23.55;58.13;101792.84;6172738;23;20012;-80
2023/06/05 10:16:39;;;;;;;9.83;5.23;;;;;;;23.80;56.92;101787.09;6202273;23;20112;-80
2023/06/05 10:19:06;;;;;;;7.38;5.90;;;;;;;23.83;55.85;101789.56;6156312;23;20021;-81
2023/06/05 10:21:32;;;;;;;10.05;5.88;;;;;;;23.70;56.64;101767.75;6167986;23;20020;-81
2023/06/05 10:27:00;;;;;;;8.02;4.90;;;;;;;24.23;54.57;101784.66;6201253;23;20012;-83
2023/06/05 10:29:44;;;;;;;6.10;5.15;;;;;;;24.41;53.46;101789.91;6177654;23;20060;-81
2023/06/05 10:32:23;;;;;;;6.70;5.43;;;;;;;24.34;54.46;101784.19;6154352;23;20036;-86
2023/06/05 10:34:58;;;;;;;9.63;5.38;;;;;;;24.73;53.12;101783.13;6175751;23;20005;-85
2023/06/05 10:37:23;;;;;;;10.10;5.85;;;;;;;24.53;53.46;101779.09;6146932;23;20016;-86
2023/06/05 10:39:50;;;;;;;5.90;4.18;;;;;;;24.78;52.65;101771.34;6151626;23;20005;-86
2023/06/05 10:42:26;;;;;;;9.23;4.50;;;;;;;24.69;50.87;101780.91;6168301;23;20081;-83
2023/06/05 10:44:53;;;;;;;5.90;4.63;;;;;;;24.47;52.49;101769.56;6163315;23;20047;-83
2023/06/05 10:47:33;;;;;;;7.78;5.10;;;;;;;24.80;52.46;101773.97;6162196;23;20056;-83
2023/06/05 10:50:21;;;;;;;9.50;5.00;;;;;;;25.02;53.23;101769.28;6190054;23;20065;-82
2023/06/05 10:52:48;;;;;;;7.32;4.30;;;;;;;24.81;52.27;101765.38;6143281;23;20404;-83
2023/06/05 10:55:15;;;;;;;7.03;4.50;;;;;;;25.14;51.39;101767.75;6139969;23;20019;-84
2023/06/05 10:58:02;;;;;;;7.70;5.20;;;;;;;25.03;52.33;101771.03;6116101;23;20463;-83
2023/06/05 11:00:29;;;;;;;9.77;5.30;;;;;;;24.66;50.08;101768.16;6166277;23;20005;-83
2023/06/05 11:02:54;;;;;;;8.57;4.38;;;;;;;24.47;51.39;101765.91;6117933;23;20024;-84
2023/06/05 11:05:21;;;;;;;7.05;4.43;;;;;;;24.78;51.70;101751.75;6142810;23;20495;-84
2023/06/05 11:07:46;;;;;;;7.85;4.40;;;;;;;24.93;51.15;101748.94;6170571;23;20092;-84
2023/06/05 11:10:15;;;;;;;6.75;4.10;;;;;;;24.69;50.91;101747.28;6164890;23;20028;-84
2023/06/05 11:12:41;;;;;;;6.85;4.50;;;;;;;24.69;50.89;101742.53;6192863;23;20008;-84
2023/06/05 11:15:08;;;;;;;7.68;4.35;;;;;;;25.22;50.77;101755.53;6164235;23;20070;-84
2023/06/05 11:17:41;;;;;;;6.70;5.28;;;;;;;24.82;50.55;101746.63;6137606;23;20039;-84
2023/06/05 11:20:27;;;;;;;13.23;5.00;;;;;;;25.30;49.23;101744.22;6138364;23;20012;-85
2023/06/05 11:22:53;;;;;;;5.85;4.22;;;;;;;25.13;49.50;101743.56;6118864;23;20005;-84
2023/06/05 11:25:20;;;;;;;11.30;4.63;;;;;;;25.31;47.31;101743.19;6168041;23;20082;-83
2023/06/05 11:27:51;;;;;;;10.77;4.15;;;;;;;25.29;50.24;101731.31;6167325;23;20069;-83
2023/06/05 11:30:22;;;;;;;10.32;3.55;;;;;;;25.52;48.91;101721.84;6117757;23;20445;-83